METAR AND TAF INFORMATION
METAR FOR PMDY
ADDS - METARS form results

(0843 UTC 16 December 2019)
Data provider http://aviationweather.gov/metar/data/
 
METAR text: PMDY 160756Z AUTO 07011KT 4SM BR OVC023 20/18 A3020 RMK AO2 SLP225 T02000178
Conditions at: PMDY (MIDWAY ISLAND NA, HI, US) observed 0756 UTC 16 December 2019
Temperature: 20.0°C (68°F)
Dewpoint: 17.8°C (64°F) [RH = 87%]
Pressure (altimeter): 30.20 inches Hg (1022.8 mb)
[Sea-level pressure: 1022.5 mb]
Winds: from the ENE (70 degrees) at 13 MPH (11 knots; 5.7 m/s)
Visibility: 4 miles ( 6 km)
Ceiling: 2300 feet AGL
Clouds: overcast cloud deck at 2300 feet AGL
Weather: BR  (mist)

METAR text: PMDY 160747Z AUTO 06010KT 10SM BKN023 20/18 A3020 RMK AO2
Conditions at: PMDY (MIDWAY ISLAND NA, HI, US) observed 0747 UTC 16 December 2019
Temperature: 20.0°C (68°F)
Dewpoint: 18.0°C (64°F) [RH = 88%]
Pressure (altimeter): 30.20 inches Hg (1022.8 mb)
Winds: from the ENE (60 degrees) at 12 MPH (10 knots; 5.1 m/s)
Visibility: 10 or more miles (16+ km)
Ceiling: 2300 feet AGL
Clouds: broken clouds at 2300 feet AGL
Weather: automated observation with no human augmentation;
there may or may not be significant weather present at this time

Forecast for: PMDY (MIDWAY ISLAND NA, HI, US)
Text: PMDY 160802Z 1608/1706 08011KT P6SM FEW012 BKN025
Forecast period: 0800 to 1800 UTC 16 December 2019
Forecast type: FROM: standard forecast or significant change
Winds: from the E (80 degrees) at 13 MPH (11 knots; 5.7 m/s)
Visibility: 6 or more miles 10+ km)
Ceiling: 2500 feet AGL
Clouds: few clouds at 1200 feet AGL
broken clouds at 2500 feet AGL
Weather: no significant weather forecast for this period
Text: FM161800 12008KT P6SM FEW012 SCT025 SCT035
Forecast period: 1800 UTC 16 December 2019 to 0600 UTC 17 December 2019
Forecast type: FROM: standard forecast or significant change
Winds: from the ESE (120 degrees) at 9 MPH (8 knots; 4.1 m/s)
Visibility: 6 or more miles 10+ km)
Ceiling: at least 12,000 feet AGL
Clouds: few clouds at 1200 feet AGL
scattered clouds at 2500 feet AGL
scattered clouds at 3500 feet AGL
Weather: no significant weather forecast for this period

 AIRPORT MAP

 RUNWAY INFORMATION
Runway 06 Runway length 7904 ft Runway width 200 ft
Runway elevation 13 ft Runway displaced threshold 0 ft Runway heading 69
Runway 24 Runway length 7904 ft Runway width 200 ft
Runway elevation 7 ft Runway displaced threshold 0 ft Runway heading 249
Runway 15 Runway length 0 ft Runway width 0 ft
Runway elevation 6 ft Runway displaced threshold 0 ft Runway heading 0
Runway 33 Runway length 0 ft Runway width 0 ft
Runway elevation 7 ft Runway displaced threshold 0 ft Runway heading 0

 AIRPORT FREQUENCIES
Type AWOS Name AWOS 3 Frequency 118.325 MHZ
Type CTAF Name CTAF Frequency 122.9 MHZ
Type RDO Name RDO Frequency 126.2 MHZ

 AIRPORT NEAR NAVIGATION AIDS
Type NDB Name Midway Frequency 400 KHZ